Flight Track Log - Related Links

Times and Time Zones

All times are in EDT time to prevent confusion due to time zone crossing. See the EJA829P flight status page for this flight to view local times or setup timezone preferences in your user account.

Time Position Orientation Groundspeed Altitude Reporting Facility
EDT Latitude Longitude Course Direction KTS MPH feet Rate Location/Type
Thu 07:35:54 PM 41.2472 -70.1375 North 221 254 2,800  Level Boston Center
Thu 07:37:00 PM 41.3511 -70.0708 26° Northeast  Level FlightAware Approximate
Thu 07:37:54 PM 41.3869 -70.1408 26° Northeast 278 320 8,800  Level Boston Center
Thu 07:38:54 PM 41.4661 -70.1297 North 278 320 12,400 3,350 Climbing Boston Center
Thu 07:39:54 PM 41.5469 -70.1183 North 289 333 15,500 2,650 Climbing Boston Center
Thu 07:40:54 PM 41.6342 -70.1014 North 299 344 17,700 2,050 Climbing Boston Center
Thu 07:41:00 PM 41.8783 -70.0333 North  Level FlightAware Approximate
Thu 07:41:54 PM 41.7017 -70.1433 335° Northwest 283 326 19,600  Level Boston Center
Thu 07:42:54 PM 41.7744 -70.2297 318° Northwest 304 350 21,500 1,950 Climbing Boston Center
Thu 07:43:54 PM 41.8431 -70.3250 314° West 320 368 23,500 2,000 Climbing Boston Center
Thu 07:44:54 PM 41.9069 -70.4122 315° West 325 374 25,500 1,850 Climbing Boston Center
Thu 07:45:54 PM 41.9689 -70.4911 317° Northwest 320 368 27,200 1,650 Climbing Boston Center
Thu 07:46:54 PM 42.0264 -70.5675 315° West 308 354 28,800 1,450 Climbing Boston Center
Thu 07:47:54 PM 42.0775 -70.6331 316° Northwest 308 354 30,100 1,350 Climbing Boston Center
Thu 07:48:54 PM 42.1522 -70.7403 313° West 316 364 31,500 950 Climbing Boston Center
Thu 07:49:54 PM 42.1728 -70.8631 283° West 314 361 32,000 250 Climbing Boston Center
Thu 07:50:54 PM 42.1744 -70.9972 271° West 339 390 32,000  Level Boston Center
Thu 07:51:54 PM 42.1739 -71.1094 270° West 360 414 32,000  Level Boston Center
Thu 07:52:54 PM 42.1736 -71.2775 270° West 376 433 32,000  Level Boston Center
Thu 07:53:54 PM 42.1728 -71.4092 270° West 376 433 32,000  Level Boston Center
Thu 07:54:54 PM 42.1739 -71.5353 271° West 357 411 32,000  Level Boston Center
Thu 07:55:54 PM 42.1706 -71.6417 268° West 320 368 32,000  Level Boston Center
Thu 07:56:54 PM 42.1692 -71.7539 269° West 306 352 32,000 100 Level Boston Center
Thu 07:57:54 PM 42.1697 -71.8603 270° West 301 346 32,200 900 Climbing Boston Center
Thu 07:58:54 PM 42.1681 -71.9639 269° West 290 334 33,800 1,400 Climbing Boston Center
Thu 07:59:54 PM 42.1664 -72.0703 269° West 285 328 35,000 1,100 Climbing Boston Center
Thu 08:00:54 PM 42.1647 -72.1853 269° West 290 334 36,000 500 Climbing Boston Center
Thu 08:01:54 PM 42.1647 -72.3000 270° West 300 345 36,000  Level Boston Center
Thu 08:02:54 PM 42.1650 -72.4150 270° West 305 351 36,000  Level Boston Center
Thu 08:03:54 PM 42.1628 -72.5214 268° West 305 351 36,000  Level Boston Center
Thu 08:04:54 PM 42.1606 -72.6250 268° West 294 338 36,000  Level Boston Center
Thu 08:05:54 PM 42.1519 -72.7286 264° West 289 333 36,000  Level Boston Center
Thu 08:06:54 PM 42.1164 -72.8150 241° Southwest 267 307 36,000  Level Boston Center
Thu 08:07:54 PM 42.0806 -72.8989 240° Southwest 267 307 36,000  Level Boston Center
Thu 08:08:54 PM 42.0511 -72.9686 240° Southwest 254 292 36,000  Level Boston Center
Thu 08:09:54 PM 42.0069 -73.0631 238° Southwest 268 308 36,000  Level Boston Center
Thu 08:10:54 PM 41.9647 -73.1408 234° Southwest 268 308 36,000  Level Boston Center
Thu 08:11:54 PM 41.9267 -73.2158 236° Southwest 257 296 36,000  Level Boston Center
Thu 08:14:16 PM 41.8344 -73.3853 234° Southwest 256 295 36,000  Level New York Center
Thu 08:15:16 PM 41.7911 -73.4617 233° Southwest 256 295 36,000  Level New York Center
Thu 08:16:17 PM 41.7517 -73.5378 235° Southwest 256 295 36,000  Level New York Center
Thu 08:17:14 PM 41.7125 -73.6167 236° Southwest 256 295 36,000  Level New York Center
Thu 08:18:15 PM 41.6692 -73.6897 232° Southwest 256 295 36,000  Level New York Center
Thu 08:19:15 PM 41.6275 -73.7656 234° Southwest 256 295 36,000  Level New York Center
Thu 08:20:17 PM 41.5903 -73.8417 237° Southwest 256 295 36,000  Level New York Center
Thu 08:21:17 PM 41.5528 -73.9147 236° Southwest 256 295 36,000  Level New York Center
Thu 08:22:15 PM 41.5069 -73.9928 232° Southwest 261 300 36,000  Level New York Center
Thu 08:23:15 PM 41.4675 -74.0683 235° Southwest 261 300 36,000  Level New York Center
Thu 08:24:16 PM 41.4258 -74.1439 234° Southwest 261 300 36,000  Level New York Center
Thu 08:25:17 PM 41.3842 -74.2192 234° Southwest 261 300 36,000  Level New York Center
Thu 08:26:15 PM 41.3422 -74.2944 233° Southwest 261 300 36,000  Level New York Center
Thu 08:27:17 PM 41.2961 -74.3719 232° Southwest 262 302 36,000  Level New York Center
Thu 08:28:17 PM 41.2500 -74.4494 232° Southwest 267 307 36,000  Level New York Center
Thu 08:29:15 PM 41.2078 -74.5328 236° Southwest 274 315 36,000  Level New York Center
Thu 08:30:16 PM 41.1614 -74.6183 234° Southwest 281 323 36,000  Level New York Center
Thu 08:31:17 PM 41.1128 -74.7008 232° Southwest 286 329 36,000  Level New York Center
Thu 08:32:17 PM 41.0661 -74.7864 234° Southwest 291 335 36,000  Level New York Center
Thu 08:33:15 PM 41.0194 -74.8769 236° Southwest 291 335 36,000  Level New York Center
Thu 08:34:16 PM 40.9706 -74.9592 232° Southwest 291 335 36,000  Level New York Center
Thu 08:35:15 PM 40.9278 -75.0528 239° Southwest 291 335 36,000  Level New York Center
Thu 08:36:15 PM 40.8828 -75.1431 237° Southwest 297 342 36,000  Level New York Center
Thu 08:37:15 PM 40.8331 -75.2442 237° Southwest 297 342 36,000  Level New York Center
Thu 08:38:17 PM 40.7903 -75.3319 237° Southwest 302 348 36,000  Level New York Center
Thu 08:39:17 PM 40.7714 -75.4403 257° West 297 342 36,000  Level New York Center
Thu 08:40:16 PM 40.7586 -75.5489 261° West 297 342 36,000  Level New York Center
Thu 08:41:16 PM 40.7439 -75.6575 260° West 302 348 36,000  Level New York Center
Thu 08:42:17 PM 40.7308 -75.7661 261° West 307 353 36,000  Level New York Center
Thu 08:43:15 PM 40.7247 -75.8642 265° West 307 353 36,000  Level New York Center
Thu 08:44:16 PM 40.7056 -75.9694 257° West 307 353 36,000  Level New York Center
Thu 08:45:17 PM 40.6925 -76.0781 261° West 307 353 36,000  Level New York Center
Thu 08:46:17 PM 40.6792 -76.1839 261° West 307 353 36,000  Level New York Center
Thu 08:47:15 PM 40.6681 -76.2925 262° West 307 353 36,000  Level New York Center
Thu 08:48:16 PM 40.6547 -76.3953 260° West 307 353 36,000  Level New York Center
Thu 08:49:16 PM 40.6414 -76.5008 261° West 302 348 36,000  Level New York Center
Thu 08:50:17 PM 40.6278 -76.6064 260° West 297 342 36,000  Level New York Center
Thu 08:51:16 PM 40.6142 -76.7119 260° West 297 342 36,000  Level New York Center
Thu 08:52:16 PM 40.6028 -76.8147 262° West 292 336 36,000  Level New York Center
Thu 08:53:17 PM 40.5892 -76.9203 260° West 292 336 36,000  Level New York Center
Thu 08:54:14 PM 40.5750 -77.0283 260° West 292 336 36,000  Level New York Center
Thu 08:55:15 PM 40.5611 -77.1336 260° West 292 336 36,000  Level New York Center
Thu 08:56:15 PM 40.5472 -77.2333 260° West 292 336 36,000  Level New York Center
Thu 08:57:16 PM 40.5353 -77.3361 261° West 292 336 36,000  Level New York Center
Thu 08:58:15 PM 40.5211 -77.4414 260° West 292 336 36,000  Level New York Center
Thu 08:59:15 PM 40.5069 -77.5464 260° West 292 336 36,000 -478 Level New York Center
Thu 09:01:36 PM 40.4708 -77.7964 259° West 306 352 34,400 -597 Descending Cleveland Center
Thu 09:02:36 PM 40.4567 -77.9033 260° West 301 346 34,000 -200 Descending Cleveland Center
Thu 09:03:36 PM 40.4425 -78.0106 260° West 301 346 34,000  Level Cleveland Center
Thu 09:04:36 PM 40.4283 -78.1200 260° West 301 346 34,000  Level Cleveland Center
Thu 09:05:36 PM 40.4119 -78.2297 259° West 301 346 34,000  Level Cleveland Center
Thu 09:06:36 PM 40.3953 -78.3394 259° West 301 346 34,000  Level Cleveland Center
Thu 09:07:36 PM 40.3808 -78.4517 260° West 307 353 34,000  Level Cleveland Center
Thu 09:08:36 PM 40.3642 -78.5639 259° West 312 359 34,000 -50 Level Cleveland Center
Thu 09:09:36 PM 40.3494 -78.6761 260° West 312 359 33,900 -650 Descending Cleveland Center
Thu 09:10:36 PM 40.3325 -78.7883 259° West 312 359 32,700 -950 Descending Cleveland Center
Thu 09:11:36 PM 40.3153 -78.9003 259° West 312 359 32,000 -350 Descending Cleveland Center
Thu 09:12:36 PM 40.3003 -79.0069 260° West 312 359 32,000  Level Cleveland Center
Thu 09:13:36 PM 40.2828 -79.1161 258° West 312 359 32,000  Level Cleveland Center
Thu 09:14:36 PM 40.2675 -79.2253 260° West 312 359 32,000  Level Cleveland Center
Thu 09:15:36 PM 40.2542 -79.3344 261° West 312 359 32,000  Level Cleveland Center
Thu 09:16:36 PM 40.2367 -79.4436 258° West 312 359 32,000  Level Cleveland Center
Thu 09:17:36 PM 40.2208 -79.5525 259° West 312 359 32,000  Level Cleveland Center
Thu 09:18:36 PM 40.2031 -79.6617 258° West 312 359 32,000  Level Cleveland Center
Thu 09:19:36 PM 40.1872 -79.7706 259° West 312 359 32,000  Level Cleveland Center
Thu 09:20:36 PM 40.1692 -79.8767 257° West 312 359 32,000  Level Cleveland Center
Thu 09:21:36 PM 40.1511 -79.9856 258° West 312 359 32,000  Level Cleveland Center
Thu 09:22:36 PM 40.1328 -80.0969 258° West 312 359 32,000 -150 Level Cleveland Center
Thu 09:23:36 PM 40.1167 -80.2058 259° West 317 365 31,700 -1,150 Descending Cleveland Center
Thu 09:24:36 PM 40.0961 -80.3144 256° West 317 365 29,700 -2,000 Descending Cleveland Center
Thu 09:25:36 PM 40.0836 -80.4258 262° West 317 365 27,700 -1,950 Descending Cleveland Center
Thu 09:26:36 PM 40.0650 -80.5317 257° West 317 365 25,800 -1,700 Descending Cleveland Center
Thu 09:27:36 PM 40.0483 -80.6400 259° West 317 365 24,300 -900 Descending Cleveland Center
Thu 09:28:36 PM 40.0317 -80.7403 258° West 311 358 24,000 -750 Descending Cleveland Center
Thu 09:29:36 PM 40.0147 -80.8406 258° West 294 338 22,800 -1,008 Descending Cleveland Center
Thu 09:30:35 PM 39.9936 -80.9461 255° West 294 338 22,000 -500 Descending Cleveland Center
Thu 09:31:36 PM 39.9725 -81.0544 256° West 305 351 21,800 -1,190 Descending Cleveland Center
Thu 09:32:36 PM 39.9531 -81.1625 257° West 305 351 19,600 -2,100 Descending Cleveland Center
Thu 09:33:36 PM 39.9317 -81.2681 255° West 305 351 17,600 -2,000 Descending Cleveland Center
Thu 09:34:42 PM 39.9075 -81.3808 254° West 293 337 15,400 -1,559 Descending Indianapolis Center
Thu 09:35:43 PM 39.8850 -81.4942 256° West 281 323 14,300 -927 Descending Indianapolis Center
Thu 09:36:45 PM 39.8639 -81.5972 255° West 289 333 13,500 -774 Descending Indianapolis Center
Thu 09:37:47 PM 39.8433 -81.7008 256° West 294 338 12,700 -829 Descending Indianapolis Center
Thu 09:38:48 PM 39.8236 -81.8017 256° West 287 330 11,800 -878 Descending Indianapolis Center
Thu 09:39:50 PM 39.8028 -81.9028 255° West 286 329 10,900 -871 Descending Indianapolis Center
Thu 09:40:52 PM 39.7831 -82.0006 255° West 279 321 10,000 -919 Descending Indianapolis Center
Thu 09:41:41 PM 39.7642 -82.0886 254° West 281 323 9,200 -927 Descending Indianapolis Center
Thu 09:42:42 PM 39.7661 -82.1867 272° West 280 322 8,300 -590 Descending Indianapolis Center
Thu 09:43:43 PM 39.7872 -82.2797 286° West 269 310 8,000 -309 Descending Indianapolis Center
Thu 09:44:58 PM 39.8117 -82.3808 287° West 261 300 7,600 -793 Descending Indianapolis Center
Thu 09:45:44 PM 39.8272 -82.4625 284° West 252 290 6,400 -897 Descending Indianapolis Center
Thu 09:46:45 PM 39.8450 -82.5444 286° West 238 274 6,000 -209 Descending Indianapolis Center
Thu 09:47:39 PM 39.8592 -82.6200 284° West 230 265 6,000  Level Indianapolis Center
Thu 09:48:46 PM 39.8736 -82.7122 282° West 243 280 6,000  Level Indianapolis Center
Thu 09:49:41 PM 39.8847 -82.7958 280° West 250 288 6,000  Level Indianapolis Center
Thu 09:50:42 PM 39.8953 -82.8847 279° West 257 296 6,000 -49 Level Indianapolis Center
Thu 09:51:43 PM 39.8953 -82.9719 270° West 231 266 5,900 -563 Descending Indianapolis Center
Thu 09:52:50 PM 39.9050 -83.0472 280° West 163 188 4,800 -893 Descending Indianapolis Center
Thu 09:53:44 PM 39.9431 -83.0453 North 132 152 4,100 -835 Descending Indianapolis Center
Thu 09:54:45 PM 39.9769 -83.0206 29° Northeast 152 175 3,200 -984 Descending Indianapolis Center
Thu 09:55:46 PM 39.9981 -82.9747 59° Northeast 149 171 2,100 -934 Descending Indianapolis Center
Thu 09:56:47 PM 40.0039 -82.9347 79° East 108 124 1,300 -791 Descending Indianapolis Center
Thu 09:57:17 PM 40.0033 -82.9142 92° East 120 138 900 -800 Descending Indianapolis Center

Login

Don't have an account? Register now (free) for customized features, flight alerts, and more!